sensor_id;sensor_type;location;lat;lon;timestamp;pressure;altitude;pressure_sealevel;temperature;humidity
27712;BME280;2377;51.734;8.950;2024-01-30T00:02:26;98991.94;;;4.48;85.20
27712;BME280;2377;51.734;8.950;2024-01-30T00:04:53;98996.84;;;4.49;85.01
27712;BME280;2377;51.734;8.950;2024-01-30T00:07:20;98996.03;;;4.49;85.38
27712;BME280;2377;51.734;8.950;2024-01-30T00:09:47;98997.00;;;4.48;85.28
27712;BME280;2377;51.734;8.950;2024-01-30T00:12:16;98993.81;;;4.45;84.86
27712;BME280;2377;51.734;8.950;2024-01-30T00:14:43;98997.00;;;4.48;85.25
27712;BME280;2377;51.734;8.950;2024-01-30T00:17:11;98997.66;;;4.50;85.18
27712;BME280;2377;51.734;8.950;2024-01-30T00:19:39;98991.00;;;4.49;85.12
27712;BME280;2377;51.734;8.950;2024-01-30T00:22:06;98997.00;;;4.48;85.37
27712;BME280;2377;51.734;8.950;2024-01-30T00:24:34;98993.81;;;4.45;85.67
27712;BME280;2377;51.734;8.950;2024-01-30T00:27:01;98993.03;;;4.45;86.03
27712;BME280;2377;51.734;8.950;2024-01-30T00:29:30;98993.16;;;4.43;86.36
27712;BME280;2377;51.734;8.950;2024-01-30T00:31:59;98994.91;;;4.43;86.02
27712;BME280;2377;51.734;8.950;2024-01-30T00:34:26;98993.28;;;4.42;85.91
27712;BME280;2377;51.734;8.950;2024-01-30T00:36:54;99003.41;;;4.42;85.90
27712;BME280;2377;51.734;8.950;2024-01-30T00:39:21;98996.78;;;4.41;85.70
27712;BME280;2377;51.734;8.950;2024-01-30T00:41:48;99002.63;;;4.41;86.15
27712;BME280;2377;51.734;8.950;2024-01-30T00:44:15;99010.22;;;4.41;85.69
27712;BME280;2377;51.734;8.950;2024-01-30T00:46:44;99001.97;;;4.39;86.09
27712;BME280;2377;51.734;8.950;2024-01-30T00:49:12;98994.38;;;4.39;86.01
27712;BME280;2377;51.734;8.950;2024-01-30T00:51:39;99002.91;;;4.38;86.53
27712;BME280;2377;51.734;8.950;2024-01-30T00:54:07;98998.78;;;4.37;86.95
27712;BME280;2377;51.734;8.950;2024-01-30T00:56:34;98998.78;;;4.37;86.77
27712;BME280;2377;51.734;8.950;2024-01-30T00:59:01;98998.78;;;4.37;85.94
27712;BME280;2377;51.734;8.950;2024-01-30T01:01:28;98997.19;;;4.36;86.01
27712;BME280;2377;51.734;8.950;2024-01-30T01:03:57;99001.91;;;4.31;86.46
27712;BME280;2377;51.734;8.950;2024-01-30T01:06:24;99004.28;;;4.33;86.24
27712;BME280;2377;51.734;8.950;2024-01-30T01:08:51;98998.41;;;4.32;86.92
27712;BME280;2377;51.734;8.950;2024-01-30T01:11:19;98997.63;;;4.32;86.67
27712;BME280;2377;51.734;8.950;2024-01-30T01:13:46;99000.16;;;4.32;86.72
27712;BME280;2377;51.734;8.950;2024-01-30T01:16:13;98997.13;;;4.28;87.03
27712;BME280;2377;51.734;8.950;2024-01-30T01:18:41;98993.94;;;4.26;86.81
27712;BME280;2377;51.734;8.950;2024-01-30T01:21:10;98995.81;;;4.24;87.18
27712;BME280;2377;51.734;8.950;2024-01-30T01:23:37;98985.69;;;4.24;87.20
27712;BME280;2377;51.734;8.950;2024-01-30T01:26:04;98989.13;;;4.23;87.06
27712;BME280;2377;51.734;8.950;2024-01-30T01:28:32;98982.38;;;4.23;87.31
27712;BME280;2377;51.734;8.950;2024-01-30T01:31:03;98982.22;;;4.25;86.95
27712;BME280;2377;51.734;8.950;2024-01-30T01:33:32;98975.56;;;4.24;86.85
27712;BME280;2377;51.734;8.950;2024-01-30T01:35:59;98980.63;;;4.24;87.14
27712;BME280;2377;51.734;8.950;2024-01-30T01:38:29;98968.91;;;4.23;87.02
27712;BME280;2377;51.734;8.950;2024-01-30T01:40:56;98974.13;;;4.21;86.84
27712;BME280;2377;51.734;8.950;2024-01-30T01:43:23;98973.59;;;4.18;87.52
27712;BME280;2377;51.734;8.950;2024-01-30T01:45:51;98974.03;;;4.13;87.54
27712;BME280;2377;51.734;8.950;2024-01-30T01:48:20;98977.63;;;4.11;87.51
27712;BME280;2377;51.734;8.950;2024-01-30T01:50:48;98971.00;;;4.10;87.92
27712;BME280;2377;51.734;8.950;2024-01-30T01:53:16;98976.06;;;4.10;88.37
27712;BME280;2377;51.734;8.950;2024-01-30T01:55:46;98971.00;;;4.10;88.09
27712;BME280;2377;51.734;8.950;2024-01-30T01:58:15;98976.72;;;4.12;88.54
27712;BME280;2377;51.734;8.950;2024-01-30T02:00:44;98972.28;;;4.14;88.72
27712;BME280;2377;51.734;8.950;2024-01-30T02:03:13;98972.28;;;4.14;88.13
27712;BME280;2377;51.734;8.950;2024-01-30T02:05:42;98975.75;;;4.13;89.05
27712;BME280;2377;51.734;8.950;2024-01-30T02:08:09;98974.31;;;4.10;88.91
27712;BME280;2377;51.734;8.950;2024-01-30T02:10:36;98976.72;;;4.12;88.72
27712;BME280;2377;51.734;8.950;2024-01-30T02:13:05;98976.72;;;4.12;88.75
27712;BME280;2377;51.734;8.950;2024-01-30T02:15:32;98972.56;;;4.11;89.36
27712;BME280;2377;51.734;8.950;2024-01-30T02:17:59;98975.75;;;4.13;89.56
27712;BME280;2377;51.734;8.950;2024-01-30T02:20:30;98966.44;;;4.13;89.40
27712;BME280;2377;51.734;8.950;2024-01-30T02:23:02;98968.16;;;4.13;89.19
27712;BME280;2377;51.734;8.950;2024-01-30T02:25:36;98969.75;;;4.14;88.57
27712;BME280;2377;51.734;8.950;2024-01-30T02:28:05;98965.50;;;4.14;89.30
27712;BME280;2377;51.734;8.950;2024-01-30T02:30:32;98955.38;;;4.14;89.50
27712;BME280;2377;51.734;8.950;2024-01-30T02:32:59;98950.31;;;4.14;88.60
27712;BME280;2377;51.734;8.950;2024-01-30T02:35:27;98951.13;;;4.15;89.27
27712;BME280;2377;51.734;8.950;2024-01-30T02:37:54;98945.41;;;4.13;88.53
27712;BME280;2377;51.734;8.950;2024-01-30T02:40:22;98943.81;;;4.12;88.94
27712;BME280;2377;51.734;8.950;2024-01-30T02:42:50;98942.06;;;4.12;89.04
27712;BME280;2377;51.734;8.950;2024-01-30T02:45:17;98939.69;;;4.11;89.38
27712;BME280;2377;51.734;8.950;2024-01-30T02:47:46;98940.75;;;4.08;89.09
27712;BME280;2377;51.734;8.950;2024-01-30T02:50:13;98939.44;;;4.04;89.59
27712;BME280;2377;51.734;8.950;2024-01-30T02:52:41;98937.06;;;4.02;89.34
27712;BME280;2377;51.734;8.950;2024-01-30T02:55:11;98935.22;;;4.05;90.12
27712;BME280;2377;51.734;8.950;2024-01-30T02:57:39;98932.50;;;4.06;89.89
27712;BME280;2377;51.734;8.950;2024-01-30T03:00:08;98933.31;;;4.07;90.29
27712;BME280;2377;51.734;8.950;2024-01-30T03:02:36;98926.38;;;4.09;90.35
27712;BME280;2377;51.734;8.950;2024-01-30T03:05:05;98924.78;;;4.08;89.83
27712;BME280;2377;51.734;8.950;2024-01-30T03:07:36;98931.44;;;4.09;90.41
27712;BME280;2377;51.734;8.950;2024-01-30T03:10:06;98922.13;;;4.09;90.38
27712;BME280;2377;51.734;8.950;2024-01-30T03:12:34;98921.31;;;4.09;90.96
27712;BME280;2377;51.734;8.950;2024-01-30T03:15:02;98914.53;;;4.09;91.24
27712;BME280;2377;51.734;8.950;2024-01-30T03:17:29;98914.53;;;4.09;91.23
27712;BME280;2377;51.734;8.950;2024-01-30T03:19:57;98911.19;;;4.09;90.79
27712;BME280;2377;51.734;8.950;2024-01-30T03:22:24;98915.34;;;4.10;91.51
27712;BME280;2377;51.734;8.950;2024-01-30T03:24:51;98910.28;;;4.10;91.79
27712;BME280;2377;51.734;8.950;2024-01-30T03:27:19;98909.31;;;4.11;91.30
27712;BME280;2377;51.734;8.950;2024-01-30T03:29:46;98912.00;;;4.09;91.01
27712;BME280;2377;51.734;8.950;2024-01-30T03:32:14;98912.63;;;4.11;91.37
27712;BME280;2377;51.734;8.950;2024-01-30T03:34:41;98910.94;;;4.12;91.04
27712;BME280;2377;51.734;8.950;2024-01-30T03:37:09;98910.13;;;4.11;90.85
27712;BME280;2377;51.734;8.950;2024-01-30T03:39:36;98906.66;;;4.12;90.86
27712;BME280;2377;51.734;8.950;2024-01-30T03:42:04;98903.34;;;4.12;91.32
27712;BME280;2377;51.734;8.950;2024-01-30T03:44:31;98908.25;;;4.13;91.15
27712;BME280;2377;51.734;8.950;2024-01-30T03:46:58;98898.13;;;4.13;91.10
27712;BME280;2377;51.734;8.950;2024-01-30T03:49:27;98896.38;;;4.14;91.37
27712;BME280;2377;51.734;8.950;2024-01-30T03:51:54;98901.44;;;4.14;91.40
27712;BME280;2377;51.734;8.950;2024-01-30T03:54:21;98898.28;;;4.12;91.58
27712;BME280;2377;51.734;8.950;2024-01-30T03:56:48;98903.34;;;4.12;92.16
27712;BME280;2377;51.734;8.950;2024-01-30T03:59:16;98898.28;;;4.12;91.98
27712;BME280;2377;51.734;8.950;2024-01-30T04:01:48;98893.22;;;4.12;91.54
27712;BME280;2377;51.734;8.950;2024-01-30T04:04:16;98884.81;;;4.11;91.91
27712;BME280;2377;51.734;8.950;2024-01-30T04:06:45;98887.63;;;4.08;91.16
27712;BME280;2377;51.734;8.950;2024-01-30T04:09:13;98886.97;;;4.06;92.19
27712;BME280;2377;51.734;8.950;2024-01-30T04:11:41;98888.06;;;4.03;91.97
27712;BME280;2377;51.734;8.950;2024-01-30T04:14:08;98872.09;;;4.03;92.50
27712;BME280;2377;51.734;8.950;2024-01-30T04:16:35;98881.44;;;4.02;92.53
27712;BME280;2377;51.734;8.950;2024-01-30T04:19:02;98882.88;;;4.05;92.34
27712;BME280;2377;51.734;8.950;2024-01-30T04:21:30;98881.13;;;4.06;92.56
27712;BME280;2377;51.734;8.950;2024-01-30T04:24:01;98876.88;;;4.06;92.01
27712;BME280;2377;51.734;8.950;2024-01-30T04:26:28;98882.09;;;4.05;92.45
27712;BME280;2377;51.734;8.950;2024-01-30T04:28:55;98888.06;;;4.03;92.39
27712;BME280;2377;51.734;8.950;2024-01-30T04:31:24;98883.97;;;4.02;92.08
27712;BME280;2377;51.734;8.950;2024-01-30T04:33:51;98884.75;;;4.03;92.68
27712;BME280;2377;51.734;8.950;2024-01-30T04:36:20;98883.97;;;4.02;92.35
27712;BME280;2377;51.734;8.950;2024-01-30T04:38:47;98877.94;;;4.03;92.12
27712;BME280;2377;51.734;8.950;2024-01-30T04:41:16;98877.03;;;4.05;91.95
27712;BME280;2377;51.734;8.950;2024-01-30T04:43:43;98883.97;;;4.02;91.99
27712;BME280;2377;51.734;8.950;2024-01-30T04:46:10;98880.63;;;4.02;92.79
27712;BME280;2377;51.734;8.950;2024-01-30T04:48:38;98882.34;;;4.01;92.24
27712;BME280;2377;51.734;8.950;2024-01-30T04:51:05;98883.31;;;4.00;92.96
27712;BME280;2377;51.734;8.950;2024-01-30T04:53:32;98879.34;;;3.98;92.06
27712;BME280;2377;51.734;8.950;2024-01-30T04:55:59;98875.34;;;3.95;93.18
27712;BME280;2377;51.734;8.950;2024-01-30T04:58:27;98883.72;;;3.96;93.15
27712;BME280;2377;51.734;8.950;2024-01-30T05:00:55;98882.28;;;3.93;93.02
27712;BME280;2377;51.734;8.950;2024-01-30T05:03:23;98881.63;;;3.91;92.76
27712;BME280;2377;51.734;8.950;2024-01-30T05:05:50;98884.81;;;3.93;92.48
27712;BME280;2377;51.734;8.950;2024-01-30T05:08:17;98884.28;;;3.90;92.43
27712;BME280;2377;51.734;8.950;2024-01-30T05:10:45;98884.28;;;3.90;93.33
27712;BME280;2377;51.734;8.950;2024-01-30T05:13:12;98884.28;;;3.90;93.06
27712;BME280;2377;51.734;8.950;2024-01-30T05:15:41;98886.03;;;3.89;93.21
27712;BME280;2377;51.734;8.950;2024-01-30T05:18:08;98888.56;;;3.89;93.39
27712;BME280;2377;51.734;8.950;2024-01-30T05:20:35;98889.50;;;3.88;92.67
27712;BME280;2377;51.734;8.950;2024-01-30T05:23:03;98887.91;;;3.87;92.93
27712;BME280;2377;51.734;8.950;2024-01-30T05:25:30;98886.97;;;3.88;93.46
27712;BME280;2377;51.734;8.950;2024-01-30T05:27:58;98886.97;;;3.88;93.47
27712;BME280;2377;51.734;8.950;2024-01-30T05:30:25;98884.44;;;3.88;93.66
27712;BME280;2377;51.734;8.950;2024-01-30T05:32:53;98885.25;;;3.89;93.66
27712;BME280;2377;51.734;8.950;2024-01-30T05:35:21;98880.31;;;3.87;93.23
27712;BME280;2377;51.734;8.950;2024-01-30T05:37:50;98882.72;;;3.89;93.19
27712;BME280;2377;51.734;8.950;2024-01-30T05:40:17;98884.44;;;3.88;93.14
27712;BME280;2377;51.734;8.950;2024-01-30T05:42:45;98884.44;;;3.88;93.61
27712;BME280;2377;51.734;8.950;2024-01-30T05:45:12;98883.63;;;3.88;93.39
27712;BME280;2377;51.734;8.950;2024-01-30T05:47:39;98880.44;;;3.86;93.04
27712;BME280;2377;51.734;8.950;2024-01-30T05:50:09;98878.06;;;3.84;93.73
27712;BME280;2377;51.734;8.950;2024-01-30T05:52:36;98873.16;;;3.83;93.79
27712;BME280;2377;51.734;8.950;2024-01-30T05:55:04;98884.06;;;3.83;93.08
27712;BME280;2377;51.734;8.950;2024-01-30T05:57:32;98879.94;;;3.82;93.36
27712;BME280;2377;51.734;8.950;2024-01-30T05:59:59;98876.63;;;3.81;93.93
27712;BME280;2377;51.734;8.950;2024-01-30T06:02:26;98874.09;;;3.81;93.53
27712;BME280;2377;51.734;8.950;2024-01-30T06:04:57;98873.31;;;3.81;93.82
27712;BME280;2377;51.734;8.950;2024-01-30T06:07:26;98872.00;;;3.77;93.50
27712;BME280;2377;51.734;8.950;2024-01-30T06:09:53;98873.09;;;3.74;93.73
27712;BME280;2377;51.734;8.950;2024-01-30T06:12:20;98869.75;;;3.74;93.71
27712;BME280;2377;51.734;8.950;2024-01-30T06:14:48;98875.75;;;3.73;93.84
27712;BME280;2377;51.734;8.950;2024-01-30T06:17:15;98873.88;;;3.75;93.74
27712;BME280;2377;51.734;8.950;2024-01-30T06:19:45;98876.41;;;3.75;93.57
27712;BME280;2377;51.734;8.950;2024-01-30T06:22:12;98877.31;;;3.74;93.62
27712;BME280;2377;51.734;8.950;2024-01-30T06:24:41;98876.81;;;3.70;94.28
27712;BME280;2377;51.734;8.950;2024-01-30T06:27:10;98868.28;;;3.71;94.28
27712;BME280;2377;51.734;8.950;2024-01-30T06:29:38;98869.91;;;3.72;93.71
27712;BME280;2377;51.734;8.950;2024-01-30T06:32:06;98874.94;;;3.72;93.87
27712;BME280;2377;51.734;8.950;2024-01-30T06:34:33;98869.25;;;3.70;93.30
27712;BME280;2377;51.734;8.950;2024-01-30T06:37:01;98865.94;;;3.70;94.19
27712;BME280;2377;51.734;8.950;2024-01-30T06:39:28;98871.91;;;3.69;93.68
27712;BME280;2377;51.734;8.950;2024-01-30T06:41:56;98861.78;;;3.69;94.34
27712;BME280;2377;51.734;8.950;2024-01-30T06:44:23;98871.91;;;3.69;93.66
27712;BME280;2377;51.734;8.950;2024-01-30T06:46:51;98861.78;;;3.69;94.54
27712;BME280;2377;51.734;8.950;2024-01-30T06:49:18;98860.22;;;3.68;94.05
27712;BME280;2377;51.734;8.950;2024-01-30T06:51:45;98866.47;;;3.64;93.55
27712;BME280;2377;51.734;8.950;2024-01-30T06:54:12;98861.56;;;3.62;94.06
27712;BME280;2377;51.734;8.950;2024-01-30T06:56:39;98863.28;;;3.62;94.54
27712;BME280;2377;51.734;8.950;2024-01-30T06:59:11;98866.47;;;3.64;94.43
27712;BME280;2377;51.734;8.950;2024-01-30T07:01:40;98868.34;;;3.62;94.72
27712;BME280;2377;51.734;8.950;2024-01-30T07:04:07;98867.44;;;3.63;94.69
27712;BME280;2377;51.734;8.950;2024-01-30T07:06:34;98875.00;;;3.63;94.32
27712;BME280;2377;51.734;8.950;2024-01-30T07:09:01;98867.44;;;3.63;94.25
27712;BME280;2377;51.734;8.950;2024-01-30T07:11:30;98869.13;;;3.62;94.02
27712;BME280;2377;51.734;8.950;2024-01-30T07:13:58;98865.44;;;3.56;94.70
27712;BME280;2377;51.734;8.950;2024-01-30T07:16:31;98859.22;;;3.51;94.46
27712;BME280;2377;51.734;8.950;2024-01-30T07:18:58;98866.00;;;3.50;94.67
27712;BME280;2377;51.734;8.950;2024-01-30T07:21:25;98860.44;;;3.47;94.56
27712;BME280;2377;51.734;8.950;2024-01-30T07:23:54;98861.66;;;3.43;94.98
27712;BME280;2377;51.734;8.950;2024-01-30T07:26:21;98859.78;;;3.45;94.63
27712;BME280;2377;51.734;8.950;2024-01-30T07:28:48;98857.13;;;3.46;94.42
27712;BME280;2377;51.734;8.950;2024-01-30T07:31:16;98856.97;;;3.48;94.73
27712;BME280;2377;51.734;8.950;2024-01-30T07:33:48;98849.25;;;3.49;95.46
27712;BME280;2377;51.734;8.950;2024-01-30T07:36:15;98849.63;;;3.54;95.90
27712;BME280;2377;51.734;8.950;2024-01-30T07:38:42;98850.00;;;3.59;95.04
27712;BME280;2377;51.734;8.950;2024-01-30T07:41:09;98848.00;;;3.63;95.95
27712;BME280;2377;51.734;8.950;2024-01-30T07:43:37;98855.28;;;3.66;95.54
27712;BME280;2377;51.734;8.950;2024-01-30T07:46:05;98849.16;;;3.69;96.03
27712;BME280;2377;51.734;8.950;2024-01-30T07:48:33;98856.31;;;3.73;95.75
27712;BME280;2377;51.734;8.950;2024-01-30T07:51:02;98856.97;;;3.75;95.47
27712;BME280;2377;51.734;8.950;2024-01-30T07:53:29;98869.31;;;3.78;96.34
27712;BME280;2377;51.734;8.950;2024-01-30T07:55:59;98860.69;;;3.81;96.04
27712;BME280;2377;51.734;8.950;2024-01-30T07:58:26;98858.63;;;3.85;96.04
27712;BME280;2377;51.734;8.950;2024-01-30T08:00:54;98858.34;;;3.88;96.07
27712;BME280;2377;51.734;8.950;2024-01-30T08:03:23;98860.09;;;3.87;95.90
27712;BME280;2377;51.734;8.950;2024-01-30T08:05:51;98866.47;;;3.91;96.56
27712;BME280;2377;51.734;8.950;2024-01-30T08:08:20;98873.75;;;3.94;96.08
27712;BME280;2377;51.734;8.950;2024-01-30T08:10:47;98877.72;;;3.97;96.31
27712;BME280;2377;51.734;8.950;2024-01-30T08:13:15;98873.44;;;3.97;95.66
27712;BME280;2377;51.734;8.950;2024-01-30T08:15:43;98876.81;;;3.98;96.13
27712;BME280;2377;51.734;8.950;2024-01-30T08:18:10;98880.91;;;3.99;95.92
27712;BME280;2377;51.734;8.950;2024-01-30T08:20:37;98879.81;;;4.01;96.34
27712;BME280;2377;51.734;8.950;2024-01-30T08:23:04;98888.06;;;4.03;96.18
27712;BME280;2377;51.734;8.950;2024-01-30T08:25:32;98884.63;;;4.05;96.63
27712;BME280;2377;51.734;8.950;2024-01-30T08:28:00;98881.78;;;4.08;96.39
27712;BME280;2377;51.734;8.950;2024-01-30T08:30:28;98886.56;;;4.11;96.75
27712;BME280;2377;51.734;8.950;2024-01-30T08:32:55;98883.72;;;4.14;96.41
27712;BME280;2377;51.734;8.950;2024-01-30T08:35:22;98880.78;;;4.18;96.97
27712;BME280;2377;51.734;8.950;2024-01-30T08:37:49;98873.69;;;4.22;96.78
27712;BME280;2377;51.734;8.950;2024-01-30T08:40:16;98874.34;;;4.24;96.23
27712;BME280;2377;51.734;8.950;2024-01-30T08:42:45;98869.00;;;4.27;96.35
27712;BME280;2377;51.734;8.950;2024-01-30T08:45:12;98870.59;;;4.28;96.43
27712;BME280;2377;51.734;8.950;2024-01-30T08:47:42;98866.03;;;4.32;96.58
27712;BME280;2377;51.734;8.950;2024-01-30T08:50:10;98864.94;;;4.34;96.80
27712;BME280;2377;51.734;8.950;2024-01-30T08:52:37;98863.84;;;4.37;96.85
27712;BME280;2377;51.734;8.950;2024-01-30T08:55:04;98866.72;;;4.42;97.40
27712;BME280;2377;51.734;8.950;2024-01-30T08:57:32;98872.19;;;4.47;97.01
27712;BME280;2377;51.734;8.950;2024-01-30T09:00:01;98872.53;;;4.52;97.64
27712;BME280;2377;51.734;8.950;2024-01-30T09:02:32;98871.44;;;4.55;98.76
27712;BME280;2377;51.734;8.950;2024-01-30T09:04:59;98878.59;;;4.59;98.89
27712;BME280;2377;51.734;8.950;2024-01-30T09:07:26;98872.00;;;4.66;99.57
27712;BME280;2377;51.734;8.950;2024-01-30T09:09:53;98880.59;;;4.74;99.22
27712;BME280;2377;51.734;8.950;2024-01-30T09:12:20;98873.34;;;4.79;99.21
27712;BME280;2377;51.734;8.950;2024-01-30T09:14:47;98886.34;;;4.84;99.16
27712;BME280;2377;51.734;8.950;2024-01-30T09:17:18;98886.56;;;4.91;99.49
27712;BME280;2377;51.734;8.950;2024-01-30T09:19:46;98894.34;;;4.97;99.66
27712;BME280;2377;51.734;8.950;2024-01-30T09:22:13;98900.56;;;5.03;100.00
27712;BME280;2377;51.734;8.950;2024-01-30T09:24:42;98902.38;;;5.11;99.95
27712;BME280;2377;51.734;8.950;2024-01-30T09:27:09;98908.44;;;5.18;99.94
27712;BME280;2377;51.734;8.950;2024-01-30T09:29:36;98903.72;;;5.31;100.00
27712;BME280;2377;51.734;8.950;2024-01-30T09:32:05;98898.25;;;5.44;100.00
27712;BME280;2377;51.734;8.950;2024-01-30T09:34:34;98898.13;;;5.54;100.00
27712;BME280;2377;51.734;8.950;2024-01-30T09:37:01;98901.19;;;5.65;100.00
27712;BME280;2377;51.734;8.950;2024-01-30T09:39:28;98904.56;;;5.74;100.00
27712;BME280;2377;51.734;8.950;2024-01-30T09:42:05;98901.38;;;5.80;100.00
27712;BME280;2377;51.734;8.950;2024-01-30T09:44:35;98900.13;;;5.84;100.00
27712;BME280;2377;51.734;8.950;2024-01-30T09:47:05;98900.63;;;5.88;100.00
27712;BME280;2377;51.734;8.950;2024-01-30T09:49:34;98900.03;;;5.94;100.00
27712;BME280;2377;51.734;8.950;2024-01-30T09:52:03;98899.56;;;5.99;100.00
27712;BME280;2377;51.734;8.950;2024-01-30T09:54:32;98894.19;;;6.10;100.00
27712;BME280;2377;51.734;8.950;2024-01-30T09:56:59;98903.09;;;6.22;100.00
27712;BME280;2377;51.734;8.950;2024-01-30T09:59:26;98901.38;;;6.31;100.00
27712;BME280;2377;51.734;8.950;2024-01-30T10:01:54;98903.91;;;6.39;100.00
27712;BME280;2377;51.734;8.950;2024-01-30T10:04:22;98903.91;;;6.47;100.00
27712;BME280;2377;51.734;8.950;2024-01-30T10:06:51;98902.34;;;6.54;100.00
27712;BME280;2377;51.734;8.950;2024-01-30T10:09:18;98892.50;;;6.60;100.00
27712;BME280;2377;51.734;8.950;2024-01-30T10:11:46;98895.97;;;6.67;100.00
27712;BME280;2377;51.734;8.950;2024-01-30T10:14:13;98891.06;;;6.73;100.00
27712;BME280;2377;51.734;8.950;2024-01-30T10:16:40;98901.81;;;6.84;100.00
27712;BME280;2377;51.734;8.950;2024-01-30T10:19:07;98901.34;;;6.88;100.00
27712;BME280;2377;51.734;8.950;2024-01-30T10:21:35;98906.09;;;6.91;100.00
27712;BME280;2377;51.734;8.950;2024-01-30T10:24:05;98898.97;;;6.95;100.00
27712;BME280;2377;51.734;8.950;2024-01-30T10:26:32;98897.06;;;6.97;100.00
27712;BME280;2377;51.734;8.950;2024-01-30T10:29:00;98892.75;;;6.97;100.00
27712;BME280;2377;51.734;8.950;2024-01-30T10:31:28;98884.97;;;6.99;100.00
27712;BME280;2377;51.734;8.950;2024-01-30T10:33:55;98892.44;;;7.01;100.00
27712;BME280;2377;51.734;8.950;2024-01-30T10:36:28;98889.72;;;7.02;100.00
27712;BME280;2377;51.734;8.950;2024-01-30T10:38:59;98890.53;;;7.03;100.00
27712;BME280;2377;51.734;8.950;2024-01-30T10:41:35;98884.31;;;7.05;99.97
27712;BME280;2377;51.734;8.950;2024-01-30T10:44:09;98886.72;;;7.07;99.95
27712;BME280;2377;51.734;8.950;2024-01-30T10:46:38;98887.34;;;7.09;100.00
27712;BME280;2377;51.734;8.950;2024-01-30T10:49:06;98883.69;;;7.11;99.69
27712;BME280;2377;51.734;8.950;2024-01-30T10:51:38;98887.00;;;7.12;100.00
27712;BME280;2377;51.734;8.950;2024-01-30T10:54:06;98882.56;;;7.14;99.78
27712;BME280;2377;51.734;8.950;2024-01-30T10:56:36;98884.16;;;7.15;99.68
27712;BME280;2377;51.734;8.950;2024-01-30T10:59:05;98892.25;;;7.18;99.50
27712;BME280;2377;51.734;8.950;2024-01-30T11:01:32;98895.56;;;7.19;98.94
27712;BME280;2377;51.734;8.950;2024-01-30T11:03:59;98896.50;;;7.26;99.32
27712;BME280;2377;51.734;8.950;2024-01-30T11:06:27;98896.19;;;7.29;98.64
27712;BME280;2377;51.734;8.950;2024-01-30T11:09:05;98886.47;;;7.33;99.12
27712;BME280;2377;51.734;8.950;2024-01-30T11:11:50;98880.91;;;7.37;99.09
27712;BME280;2377;51.734;8.950;2024-01-30T11:14:23;98887.53;;;7.47;98.74
27712;BME280;2377;51.734;8.950;2024-01-30T11:16:51;98875.59;;;7.55;98.67
27712;BME280;2377;51.734;8.950;2024-01-30T11:19:23;98871.88;;;7.66;99.54
27712;BME280;2377;51.734;8.950;2024-01-30T11:21:52;98861.47;;;7.76;99.81
27712;BME280;2377;51.734;8.950;2024-01-30T11:24:20;98863.19;;;7.83;98.95
27712;BME280;2377;51.734;8.950;2024-01-30T11:26:55;98871.75;;;7.91;98.68
27712;BME280;2377;51.734;8.950;2024-01-30T11:29:25;98868.50;;;7.97;98.58
27712;BME280;2377;51.734;8.950;2024-01-30T11:31:53;98876.13;;;8.05;98.20
27712;BME280;2377;51.734;8.950;2024-01-30T11:34:22;98876.22;;;8.12;97.88
27712;BME280;2377;51.734;8.950;2024-01-30T11:36:55;98864.22;;;8.20;98.11
27712;BME280;2377;51.734;8.950;2024-01-30T11:39:25;98868.47;;;8.28;98.29
27712;BME280;2377;51.734;8.950;2024-01-30T11:41:55;98866.00;;;8.35;98.18
27712;BME280;2377;51.734;8.950;2024-01-30T11:44:23;98868.53;;;8.43;98.21
27712;BME280;2377;51.734;8.950;2024-01-30T11:46:51;98863.81;;;8.55;97.46
27712;BME280;2377;51.734;8.950;2024-01-30T11:49:20;98868.41;;;8.59;97.14
27712;BME280;2377;51.734;8.950;2024-01-30T11:51:50;98869.97;;;8.60;97.09
27712;BME280;2377;51.734;8.950;2024-01-30T11:54:18;98860.69;;;8.67;96.39
27712;BME280;2377;51.734;8.950;2024-01-30T11:56:45;98866.38;;;8.70;96.67
27712;BME280;2377;51.734;8.950;2024-01-30T11:59:14;98875.03;;;8.68;96.10
27712;BME280;2377;51.734;8.950;2024-01-30T12:01:42;98872.56;;;8.75;96.15
27712;BME280;2377;51.734;8.950;2024-01-30T12:04:09;98864.66;;;8.85;97.26
27712;BME280;2377;51.734;8.950;2024-01-30T12:06:38;98862.28;;;8.98;97.06
27712;BME280;2377;51.734;8.950;2024-01-30T12:09:09;98867.94;;;9.08;96.77
27712;BME280;2377;51.734;8.950;2024-01-30T12:11:45;98867.22;;;9.15;95.95
27712;BME280;2377;51.734;8.950;2024-01-30T12:14:14;98867.13;;;9.23;95.58
27712;BME280;2377;51.734;8.950;2024-01-30T12:16:43;98859.31;;;9.24;94.63
27712;BME280;2377;51.734;8.950;2024-01-30T12:19:10;98860.72;;;9.27;95.31
27712;BME280;2377;51.734;8.950;2024-01-30T12:21:39;98861.94;;;9.31;95.79
27712;BME280;2377;51.734;8.950;2024-01-30T12:24:07;98863.16;;;9.35;94.95
27712;BME280;2377;51.734;8.950;2024-01-30T12:26:34;98859.66;;;9.36;94.49
27712;BME280;2377;51.734;8.950;2024-01-30T12:29:04;98857.69;;;9.38;94.89
27712;BME280;2377;51.734;8.950;2024-01-30T12:31:34;98858.94;;;9.42;94.96
27712;BME280;2377;51.734;8.950;2024-01-30T12:34:03;98849.25;;;9.52;95.06
27712;BME280;2377;51.734;8.950;2024-01-30T12:36:31;98854.78;;;9.56;94.94
27712;BME280;2377;51.734;8.950;2024-01-30T12:39:00;98855.03;;;9.61;94.72
27712;BME280;2377;51.734;8.950;2024-01-30T12:41:28;98856.06;;;9.67;95.07
27712;BME280;2377;51.734;8.950;2024-01-30T12:43:57;98855.72;;;9.70;94.58
27712;BME280;2377;51.734;8.950;2024-01-30T12:46:27;98855.34;;;9.73;94.29
27712;BME280;2377;51.734;8.950;2024-01-30T12:48:57;98862.66;;;9.76;94.42
27712;BME280;2377;51.734;8.950;2024-01-30T12:51:24;98867.75;;;9.76;94.14
27712;BME280;2377;51.734;8.950;2024-01-30T12:53:51;98861.50;;;9.79;94.58
27712;BME280;2377;51.734;8.950;2024-01-30T12:56:19;98867.63;;;9.84;94.05
27712;BME280;2377;51.734;8.950;2024-01-30T12:58:47;98877.31;;;9.89;93.96
27712;BME280;2377;51.734;8.950;2024-01-30T13:01:15;98877.16;;;9.90;94.39
27712;BME280;2377;51.734;8.950;2024-01-30T13:03:44;98878.34;;;9.94;93.65
27712;BME280;2377;51.734;8.950;2024-01-30T13:06:13;98875.78;;;9.94;93.83
27712;BME280;2377;51.734;8.950;2024-01-30T13:08:40;98872.53;;;10.01;93.34
27712;BME280;2377;51.734;8.950;2024-01-30T13:11:07;98874.09;;;10.02;93.51
27712;BME280;2377;51.734;8.950;2024-01-30T13:13:38;98879.56;;;9.99;93.23
27712;BME280;2377;51.734;8.950;2024-01-30T13:16:06;98875.19;;;9.92;93.61
27712;BME280;2377;51.734;8.950;2024-01-30T13:18:33;98885.41;;;9.92;93.35
27712;BME280;2377;51.734;8.950;2024-01-30T13:21:00;98877.56;;;9.94;93.35
27712;BME280;2377;51.734;8.950;2024-01-30T13:23:31;98881.50;;;9.97;93.19
27712;BME280;2377;51.734;8.950;2024-01-30T13:25:58;98879.94;;;9.95;93.28